Time;durP1;ratioP1;P1;durP2;ratioP2;P2;SDS_P1;SDS_P2;PMS_P1;PMS_P2;Temp;Humidity;BMP_temperature;BMP_pressure;BME280_temperature;BME280_humidity;BME280_pressure;Samples;Min_cycle;Max_cycle;Signal;HPM_P1;HPM_P2
2022/03/01 00:02:25;;;;;;;29.27;11.97;;;;;;;-2.84;67.03;102910.85;1554027;89;26534;-79
2022/03/01 00:04:53;;;;;;;30.60;14.30;;;;;;;-2.88;67.07;102906.60;1552530;90;25899;-79
2022/03/01 00:07:19;;;;;;;40.60;16.20;;;;;;;-2.86;67.18;102907.86;1554079;90;26725;-79
2022/03/01 00:09:45;;;;;;;36.48;15.30;;;;;;;-2.84;67.36;102908.67;1554269;91;25582;-79
2022/03/01 00:12:12;;;;;;;33.10;15.05;;;;;;;-2.85;67.51;102903.91;1552428;90;28289;-79
2022/03/01 00:14:38;;;;;;;37.05;14.15;;;;;;;-2.84;67.60;102900.36;1554080;90;25797;-79
2022/03/01 00:17:05;;;;;;;46.23;17.12;;;;;;;-2.87;67.65;102899.61;1551353;90;25932;-79
2022/03/01 00:19:31;;;;;;;40.73;16.87;;;;;;;-2.86;67.74;102903.48;1554878;90;25989;-79
2022/03/01 00:21:58;;;;;;;40.52;17.62;;;;;;;-2.84;67.98;102893.80;1554624;91;25919;-79
2022/03/01 00:24:25;;;;;;;42.53;17.42;;;;;;;-2.82;67.93;102885.91;1561135;91;27553;-79
2022/03/01 00:26:51;;;;;;;42.10;16.62;;;;;;;-2.81;68.01;102884.99;1549163;90;26503;-79
2022/03/01 00:29:18;;;;;;;38.17;17.42;;;;;;;-2.86;67.99;102881.19;1554201;90;26122;-80
2022/03/01 00:31:44;;;;;;;36.13;16.25;;;;;;;-2.88;68.13;102876.45;1554204;90;26700;-79
2022/03/01 00:34:10;;;;;;;28.32;14.13;;;;;;;-2.90;68.21;102883.50;1552638;90;25288;-79
2022/03/01 00:36:36;;;;;;;30.92;13.72;;;;;;;-2.91;68.65;102878.31;1554532;90;28353;-80
2022/03/01 00:39:05;;;;;;;26.52;12.30;;;;;;;-2.94;68.89;102873.14;1553669;91;25824;-80
2022/03/01 00:41:31;;;;;;;34.98;13.25;;;;;;;-2.94;69.07;102875.77;1559169;89;25964;-79
2022/03/01 00:43:58;;;;;;;26.97;12.30;;;;;;;-3.00;69.36;102879.44;1552385;91;25808;-79
2022/03/01 00:46:26;;;;;;;29.63;12.47;;;;;;;-2.99;69.58;102864.58;1559737;90;25915;-79
2022/03/01 00:48:54;;;;;;;24.32;11.33;;;;;;;-3.01;69.57;102863.30;1555265;91;28407;-79
2022/03/01 00:51:20;;;;;;;27.32;12.43;;;;;;;-3.03;69.61;102861.17;1555524;90;25836;-79
2022/03/01 00:53:47;;;;;;;27.80;12.55;;;;;;;-3.03;69.72;102861.17;1559236;90;25863;-79
2022/03/01 00:56:13;;;;;;;30.50;13.08;;;;;;;-3.02;69.86;102857.66;1552370;90;26013;-79
2022/03/01 00:58:39;;;;;;;28.25;11.75;;;;;;;-3.02;70.03;102860.28;1553816;90;26002;-79
2022/03/01 01:01:06;;;;;;;27.55;12.33;;;;;;;-3.00;70.29;102857.61;1550913;91;27469;-80
2022/03/01 01:03:32;;;;;;;26.25;13.58;;;;;;;-3.01;70.26;102855.42;1552004;90;25860;-79
2022/03/01 01:05:59;;;;;;;28.73;11.80;;;;;;;-3.01;70.44;102859.80;1551791;91;26009;-79
2022/03/01 01:08:25;;;;;;;33.35;13.45;;;;;;;-3.03;70.38;102857.68;1557671;91;25864;-79
2022/03/01 01:10:52;;;;;;;29.02;13.38;;;;;;;-3.05;70.32;102851.19;1555388;90;25339;-79
2022/03/01 01:13:19;;;;;;;31.00;15.08;;;;;;;-3.03;70.35;102852.44;1553176;90;27473;-80
2022/03/01 01:15:45;;;;;;;28.75;13.80;;;;;;;-3.03;70.21;102849.81;1552871;90;25813;-79
2022/03/01 01:18:12;;;;;;;36.35;16.27;;;;;;;-3.04;70.12;102852.05;1558032;91;25324;-79
2022/03/01 01:20:39;;;;;;;38.13;16.37;;;;;;;-3.08;70.13;102851.29;1549798;91;26197;-79
2022/03/01 01:23:05;;;;;;;38.20;15.58;;;;;;;-3.08;70.20;102859.60;1549926;90;25638;-80
2022/03/01 01:25:32;;;;;;;37.95;16.55;;;;;;;-3.10;70.16;102864.03;1558601;91;28210;-79
2022/03/01 01:28:01;;;;;;;47.50;18.67;;;;;;;-3.10;70.16;102864.03;1554909;89;25972;-79
2022/03/01 01:30:31;;;;;;;40.38;18.05;;;;;;;-3.12;69.99;102862.74;1554512;91;25836;-79
2022/03/01 01:32:59;;;;;;;40.50;19.23;;;;;;;-3.11;69.94;102861.85;1556311;91;26542;-79
2022/03/01 01:35:28;;;;;;;45.45;18.45;;;;;;;-3.11;69.92;102864.47;1552451;90;25927;-79
2022/03/01 01:37:56;;;;;;;44.67;18.55;;;;;;;-3.09;70.09;102867.91;1551402;91;27449;-79
2022/03/01 01:40:26;;;;;;;48.85;21.27;;;;;;;-3.06;70.47;102870.89;1555136;91;25992;-80
2022/03/01 01:42:54;;;;;;;46.02;20.57;;;;;;;-3.01;70.63;102865.91;1555398;91;32393;-79
2022/03/01 01:45:22;;;;;;;47.25;21.55;;;;;;;-2.97;70.62;102866.70;1541710;91;54959;-79
2022/03/01 01:47:51;;;;;;;52.70;21.50;;;;;;;-2.93;70.53;102860.45;1548367;91;25848;-79
2022/03/01 01:50:18;;;;;;;51.92;23.05;;;;;;;-2.91;70.29;102861.27;1571839;90;27504;-80
2022/03/01 01:52:50;;;;;;;60.25;25.30;;;;;;;-2.87;70.33;102862.89;1559221;91;25974;-79
2022/03/01 01:55:19;;;;;;;59.93;26.50;;;;;;;-2.85;70.43;102864.57;1561343;90;25802;-80
2022/03/01 01:57:46;;;;;;;53.33;25.70;;;;;;;-2.86;70.74;102854.97;1558490;91;25931;-80
2022/03/01 02:00:15;;;;;;;53.75;24.82;;;;;;;-2.86;70.52;102856.73;1557679;90;26158;-79
2022/03/01 02:02:43;;;;;;;53.42;26.07;;;;;;;-2.88;70.34;102859.84;1573033;90;28337;-79
2022/03/01 02:05:11;;;;;;;52.10;25.02;;;;;;;-3.06;70.33;102857.79;1569602;89;25835;-79
2022/03/01 02:07:40;;;;;;;48.30;23.25;;;;;;;-3.06;70.33;102857.79;1563220;88;25991;-80
2022/03/01 02:10:08;;;;;;;50.28;23.47;;;;;;;-3.10;70.42;102857.48;1556341;90;25871;-79
2022/03/01 02:12:34;;;;;;;45.40;21.00;;;;;;;-3.21;70.51;102842.90;1573080;90;25969;-81
2022/03/01 02:15:00;;;;;;;47.08;19.37;;;;;;;-3.20;70.52;102853.80;1561110;91;27460;-79
2022/03/01 02:17:27;;;;;;;39.15;17.12;;;;;;;-3.23;70.68;102856.98;1573085;90;25796;-79
2022/03/01 02:19:53;;;;;;;37.78;17.10;;;;;;;-3.28;70.83;102854.92;1557808;91;26009;-79
2022/03/01 02:22:20;;;;;;;34.83;17.80;;;;;;;-3.41;71.01;102846.56;1571426;87;26463;-79
2022/03/01 02:24:46;;;;;;;37.78;17.73;;;;;;;-3.44;70.91;102843.14;1557156;90;25823;-79
2022/03/01 02:27:13;;;;;;;32.93;15.75;;;;;;;-3.47;70.96;102844.12;1557201;91;27028;-79
2022/03/01 02:29:40;;;;;;;33.40;16.07;;;;;;;-3.47;71.19;102844.12;1553395;90;25835;-79
2022/03/01 02:32:09;;;;;;;37.60;17.55;;;;;;;-3.50;71.43;102844.19;1563763;91;25851;-79
2022/03/01 02:34:36;;;;;;;34.48;15.20;;;;;;;-3.53;71.37;102844.73;1558062;91;26853;-80
2022/03/01 02:37:04;;;;;;;39.60;16.52;;;;;;;-3.59;71.26;102847.05;1574712;87;26220;-79
2022/03/01 02:39:30;;;;;;;33.90;15.85;;;;;;;-3.64;71.12;102847.66;1554412;91;27485;-79
2022/03/01 02:41:56;;;;;;;33.10;14.78;;;;;;;-3.69;71.20;102843.42;1551378;91;25959;-80
2022/03/01 02:44:22;;;;;;;35.55;14.73;;;;;;;-3.71;71.10;102847.84;1546836;91;26648;-79
2022/03/01 02:46:49;;;;;;;37.42;16.23;;;;;;;-3.75;71.28;102841.84;1552450;90;26533;-79
2022/03/01 02:49:15;;;;;;;30.35;14.85;;;;;;;-3.75;71.21;102851.00;1551571;91;25880;-79
2022/03/01 02:51:43;;;;;;;29.48;13.38;;;;;;;-3.74;71.25;102847.95;1553524;90;27475;-78
2022/03/01 02:54:09;;;;;;;33.92;14.63;;;;;;;-3.77;71.00;102838.85;1555664;90;26508;-79
2022/03/01 02:56:36;;;;;;;27.90;13.45;;;;;;;-3.79;70.97;102843.27;1559026;91;25342;-79
2022/03/01 02:59:02;;;;;;;33.58;15.63;;;;;;;-3.85;70.88;102840.37;1556950;90;26547;-79
2022/03/01 03:01:29;;;;;;;39.27;15.32;;;;;;;-3.90;70.96;102838.31;1551252;91;25849;-79
2022/03/01 03:03:56;;;;;;;32.10;15.15;;;;;;;-3.93;71.29;102829.22;1562405;90;28228;-79
2022/03/01 03:06:23;;;;;;;32.20;15.28;;;;;;;-3.94;71.55;102834.06;1556835;89;25841;-79
2022/03/01 03:08:50;;;;;;;27.05;13.60;;;;;;;-3.96;71.63;102832.77;1554738;91;25826;-79
2022/03/01 03:11:17;;;;;;;31.55;13.90;;;;;;;-3.98;71.66;102828.03;1554878;90;26544;-79
2022/03/01 03:13:43;;;;;;;31.15;14.33;;;;;;;-3.99;71.44;102826.33;1554546;91;25858;-79
2022/03/01 03:16:14;;;;;;;31.77;13.62;;;;;;;-4.01;71.23;102819.41;1559196;90;28427;-79
2022/03/01 03:18:38;;;;;;;30.65;13.85;;;;;;;-3.99;71.38;102830.70;1551087;91;26177;-80
2022/03/01 03:21:05;;;;;;;30.50;14.83;;;;;;;-3.99;71.18;102826.77;1554262;88;25355;-80
2022/03/01 03:23:32;;;;;;;33.50;14.40;;;;;;;-4.04;70.90;102827.33;1555299;90;26813;-79
2022/03/01 03:25:59;;;;;;;33.48;14.25;;;;;;;-4.09;70.86;102822.69;1549893;91;25757;-79
2022/03/01 03:28:25;;;;;;;34.03;14.95;;;;;;;-4.12;71.18;102820.13;1552688;90;27484;-78
2022/03/01 03:30:52;;;;;;;37.08;15.88;;;;;;;-4.11;71.64;102817.50;1555558;90;25890;-78
2022/03/01 03:33:19;;;;;;;32.13;14.78;;;;;;;-4.11;71.80;102818.81;1552356;88;25891;-79
2022/03/01 03:35:45;;;;;;;34.13;15.58;;;;;;;-4.12;71.77;102822.31;1553406;90;25761;-79
2022/03/01 03:38:11;;;;;;;40.70;17.32;;;;;;;-4.14;71.74;102814.08;1554450;91;25958;-79
2022/03/01 03:40:38;;;;;;;39.73;16.50;;;;;;;-4.17;71.74;102811.09;1554949;91;27459;-79
2022/03/01 03:43:05;;;;;;;34.30;16.20;;;;;;;-4.19;71.72;102808.96;1550244;91;26605;-79
2022/03/01 03:45:31;;;;;;;37.67;16.60;;;;;;;-4.23;71.52;102809.95;1552483;90;25826;-79
2022/03/01 03:47:57;;;;;;;31.17;14.93;;;;;;;-4.29;71.33;102803.56;1551094;90;26102;-79
2022/03/01 03:50:24;;;;;;;35.63;17.27;;;;;;;-4.32;71.25;102802.80;1554082;90;26494;-79
2022/03/01 03:52:50;;;;;;;34.83;15.65;;;;;;;-4.37;71.15;102807.27;1555486;90;27631;-79
2022/03/01 03:55:16;;;;;;;32.75;16.97;;;;;;;-4.41;71.33;102796.48;1551568;91;25857;-79
2022/03/01 03:57:42;;;;;;;33.25;14.95;;;;;;;-4.44;71.45;102797.84;1550130;91;26108;-79
2022/03/01 04:00:15;;;;;;;39.63;17.10;;;;;;;-4.44;71.45;102803.95;1555767;90;25849;-79
2022/03/01 04:02:41;;;;;;;33.65;14.85;;;;;;;-4.45;71.27;102800.06;1549200;90;25848;-79
2022/03/01 04:05:10;;;;;;;35.40;16.00;;;;;;;-4.51;71.25;102795.00;1555692;90;28281;-79
2022/03/01 04:07:39;;;;;;;32.25;15.32;;;;;;;-4.56;71.02;102802.08;1554491;90;26546;-79
2022/03/01 04:10:06;;;;;;;35.05;14.58;;;;;;;-4.60;71.03;102805.23;1560644;90;26673;-79
2022/03/01 04:12:33;;;;;;;37.60;16.05;;;;;;;-4.60;71.24;102800.00;1542022;90;26585;-78
2022/03/01 04:14:59;;;;;;;37.55;16.05;;;;;;;-4.62;71.27;102794.39;1557604;90;25899;-78
2022/03/01 04:17:25;;;;;;;30.95;15.58;;;;;;;-4.64;71.21;102795.71;1554908;88;27541;-78
2022/03/01 04:19:51;;;;;;;37.25;16.15;;;;;;;-4.66;71.13;102795.36;1554793;91;25884;-79
2022/03/01 04:22:18;;;;;;;32.93;16.60;;;;;;;-4.68;71.11;102788.84;1551501;91;25960;-79
2022/03/01 04:24:44;;;;;;;38.20;15.93;;;;;;;-4.68;71.24;102788.84;1555039;90;25886;-78
2022/03/01 04:27:10;;;;;;;36.03;16.07;;;;;;;-4.68;71.35;102785.39;1548094;91;25913;-78
2022/03/01 04:29:36;;;;;;;42.55;17.40;;;;;;;-4.68;71.40;102781.47;1552517;91;27541;-79
2022/03/01 04:32:03;;;;;;;42.25;17.57;;;;;;;-4.67;71.43;102783.17;1548717;90;25888;-78
2022/03/01 04:34:30;;;;;;;41.18;18.23;;;;;;;-4.65;71.57;102782.69;1555791;90;25820;-78
2022/03/01 04:36:56;;;;;;;36.55;17.60;;;;;;;-4.62;71.89;102786.11;1557831;90;25919;-78
2022/03/01 04:39:22;;;;;;;37.15;17.75;;;;;;;-4.57;72.41;102779.42;1553879;90;25856;-79
2022/03/01 04:41:48;;;;;;;42.33;17.80;;;;;;;-4.53;72.17;102776.70;1559719;90;27505;-79
2022/03/01 04:44:15;;;;;;;42.38;19.48;;;;;;;-4.56;71.92;102783.34;1575279;90;25302;-79
2022/03/01 04:46:42;;;;;;;37.73;17.92;;;;;;;-4.57;71.95;102785.97;1571432;90;25868;-78
2022/03/01 04:49:08;;;;;;;39.63;18.15;;;;;;;-4.59;71.78;102778.61;1569621;90;26398;-78
2022/03/01 04:51:35;;;;;;;39.67;17.87;;;;;;;-4.58;71.84;102779.03;1558581;90;25920;-80
2022/03/01 04:54:01;;;;;;;39.73;17.70;;;;;;;-4.62;71.64;102771.73;1554053;90;27698;-79
2022/03/01 04:56:27;;;;;;;39.30;18.12;;;;;;;-4.62;71.52;102767.80;1551353;88;25904;-79
2022/03/01 04:58:53;;;;;;;41.45;17.57;;;;;;;-4.65;71.50;102765.25;1554077;90;25962;-78
2022/03/01 05:01:20;;;;;;;36.80;16.77;;;;;;;-4.67;71.49;102769.66;1559565;91;25817;-79
2022/03/01 05:03:48;;;;;;;44.95;18.62;;;;;;;-4.72;71.30;102767.15;1553727;91;25767;-78
2022/03/01 05:06:15;;;;;;;42.05;17.35;;;;;;;-4.77;71.37;102761.16;1559143;90;27639;-78
2022/03/01 05:08:41;;;;;;;40.40;16.60;;;;;;;-4.82;71.34;102757.82;1553996;90;26578;-78
2022/03/01 05:11:07;;;;;;;39.05;18.48;;;;;;;-4.83;71.55;102759.14;1559180;89;25837;-78
2022/03/01 05:13:33;;;;;;;47.98;19.87;;;;;;;-4.84;71.52;102761.36;1577219;89;26369;-79
2022/03/01 05:16:00;;;;;;;43.85;19.17;;;;;;;-4.86;71.71;102761.41;1560319;89;25857;-78
2022/03/01 05:18:26;;;;;;;39.10;19.55;;;;;;;-4.86;71.73;102761.41;1552988;91;27715;-78
2022/03/01 05:20:52;;;;;;;43.17;19.73;;;;;;;-4.92;71.56;102760.22;1566883;91;25819;-79
2022/03/01 05:23:18;;;;;;;44.53;19.62;;;;;;;-4.94;71.79;102758.09;1568923;90;26707;-78
2022/03/01 05:25:45;;;;;;;44.65;22.07;;;;;;;-4.93;71.89;102765.48;1556204;91;25798;-78
2022/03/01 05:28:11;;;;;;;45.52;19.87;;;;;;;-4.93;71.91;102762.88;1557919;91;26002;-79
2022/03/01 05:30:37;;;;;;;41.73;20.62;;;;;;;-4.95;71.76;102764.67;1555260;90;28292;-79
2022/03/01 05:33:04;;;;;;;42.48;20.70;;;;;;;-4.96;72.01;102760.35;1553737;90;26484;-78
2022/03/01 05:35:31;;;;;;;40.10;18.20;;;;;;;-4.94;72.24;102762.02;1552772;91;26602;-78
2022/03/01 05:37:58;;;;;;;34.70;16.62;;;;;;;-4.94;72.20;102754.64;1553009;90;26944;-79
2022/03/01 05:40:29;;;;;;;43.75;19.35;;;;;;;-4.95;72.10;102759.44;1559568;90;26178;-78
2022/03/01 05:42:57;;;;;;;45.70;20.23;;;;;;;-4.96;72.06;102762.49;1561076;90;28484;-78
2022/03/01 05:45:25;;;;;;;58.58;24.60;;;;;;;-4.96;72.13;102758.58;1553490;91;25771;-78
2022/03/01 05:47:56;;;;;;;82.15;38.70;;;;;;;-4.99;72.16;102761.28;1552364;90;25806;-79
2022/03/01 05:50:22;;;;;;;;;;;;;;;-5.01;72.13;102770.04;1558312;90;26592;-78
2022/03/01 05:52:50;;;;;;;66.77;29.65;;;;;;;-5.04;72.15;102771.41;1552815;90;26006;-78
2022/03/01 05:55:16;;;;;;;122.00;54.73;;;;;;;-5.08;72.39;102764.09;1554738;91;27553;-79
2022/03/01 05:57:43;;;;;;;115.10;55.05;;;;;;;-5.04;72.81;102770.09;1558158;90;26509;-78
2022/03/01 06:00:13;;;;;;;111.37;52.93;;;;;;;-5.01;73.10;102776.58;1572454;87;26033;-79
2022/03/01 06:02:42;;;;;;;142.85;70.65;;;;;;;-4.99;73.24;102769.56;1561291;89;26009;-78
2022/03/01 06:05:11;;;;;;;133.10;66.45;;;;;;;-4.97;73.23;102773.86;1552621;90;26600;-78
2022/03/01 06:07:39;;;;;;;157.03;74.03;;;;;;;-4.94;73.31;102772.47;1551437;91;27482;-79
2022/03/01 06:10:07;;;;;;;150.05;74.25;;;;;;;-4.92;73.42;102770.67;1553408;91;25962;-79
2022/03/01 06:12:34;;;;;;;136.43;70.72;;;;;;;-4.91;73.46;102765.00;1555332;90;25760;-78
2022/03/01 06:15:00;;;;;;;110.03;51.10;;;;;;;-4.90;73.50;102764.96;1551501;91;26617;-78
2022/03/01 06:17:28;;;;;;;81.15;37.70;;;;;;;-4.87;73.56;102763.59;1551014;91;25924;-78
2022/03/01 06:19:54;;;;;;;76.53;39.20;;;;;;;-4.84;73.78;102771.38;1558072;91;27464;-78
2022/03/01 06:22:21;;;;;;;60.50;28.02;;;;;;;-4.82;74.01;102769.59;1547981;91;25788;-78
2022/03/01 06:24:47;;;;;;;58.92;27.13;;;;;;;-4.81;74.01;102767.80;1552248;90;25355;-78
2022/03/01 06:27:14;;;;;;;64.10;28.10;;;;;;;-4.79;74.13;102765.57;1554845;90;26670;-78
2022/03/01 06:29:41;;;;;;;66.28;30.45;;;;;;;-4.75;74.20;102763.77;1555874;90;25859;-79
2022/03/01 06:32:08;;;;;;;60.60;28.90;;;;;;;-4.73;74.17;102768.03;1549643;90;27483;-78
2022/03/01 06:34:34;;;;;;;59.98;28.65;;;;;;;-4.70;74.40;102769.72;1551628;91;25900;-78
2022/03/01 06:37:00;;;;;;;59.55;27.80;;;;;;;-4.66;74.79;102766.60;1554659;91;25866;-79
2022/03/01 06:39:27;;;;;;;68.52;30.60;;;;;;;-4.61;75.17;102763.41;1553834;91;25963;-78
2022/03/01 06:41:53;;;;;;;58.02;28.15;;;;;;;-4.56;75.39;102767.64;1552522;90;26520;-78
2022/03/01 06:44:19;;;;;;;56.37;25.15;;;;;;;-4.49;75.54;102759.20;1561774;90;27515;-78
2022/03/01 06:46:46;;;;;;;56.48;24.27;;;;;;;-4.43;75.73;102758.59;1554727;90;26387;-78
2022/03/01 06:49:13;;;;;;;54.70;23.77;;;;;;;-4.36;75.75;102760.14;1555473;90;25806;-78
2022/03/01 06:51:39;;;;;;;60.55;23.90;;;;;;;-4.28;75.89;102760.82;1553296;90;26602;-79
2022/03/01 06:54:05;;;;;;;60.03;24.63;;;;;;;-4.20;76.15;102765.40;1561895;90;25910;-80
2022/03/01 06:56:31;;;;;;;67.37;27.73;;;;;;;-4.10;76.32;102764.24;1553914;90;27484;-79
2022/03/01 06:58:58;;;;;;;55.52;25.20;;;;;;;-4.03;76.71;102757.95;1557152;88;25892;-79
2022/03/01 07:01:24;;;;;;;57.30;26.17;;;;;;;-3.97;76.93;102763.46;1560648;91;25336;-79
2022/03/01 07:03:50;;;;;;;64.82;27.80;;;;;;;-3.88;77.03;102765.83;1558197;91;25834;-80
2022/03/01 07:06:17;;;;;;;63.58;28.65;;;;;;;-3.76;77.24;102760.72;1546439;89;26580;-80
2022/03/01 07:08:44;;;;;;;69.40;30.08;;;;;;;-3.68;77.31;102756.98;1548294;91;28256;-79
2022/03/01 07:11:10;;;;;;;67.87;29.55;;;;;;;-3.60;77.39;102748.89;1554887;91;25625;-79
2022/03/01 07:13:37;;;;;;;65.00;28.65;;;;;;;-3.51;77.15;102752.56;1552109;91;25914;-79
2022/03/01 07:16:05;;;;;;;63.13;29.15;;;;;;;-3.42;76.96;102753.13;1551886;91;25836;-79
2022/03/01 07:18:31;;;;;;;64.77;29.52;;;;;;;-3.33;76.74;102752.86;1551663;91;25394;-79
2022/03/01 07:20:58;;;;;;;57.43;28.98;;;;;;;-3.22;76.75;102748.16;1561781;90;27544;-80
2022/03/01 07:23:24;;;;;;;63.00;28.00;;;;;;;-3.12;76.68;102746.09;1558470;90;25823;-79
2022/03/01 07:25:51;;;;;;;57.23;26.93;;;;;;;-3.01;76.84;102755.80;1551439;90;26538;-79
2022/03/01 07:28:17;;;;;;;61.60;26.12;;;;;;;-2.92;76.70;102755.97;1552663;91;25794;-79
2022/03/01 07:30:43;;;;;;;58.65;24.90;;;;;;;-2.83;76.96;102755.69;1568159;87;25818;-79
2022/03/01 07:33:10;;;;;;;62.05;26.25;;;;;;;-2.73;76.89;102755.78;1565681;90;27511;-79
2022/03/01 07:35:36;;;;;;;57.08;25.50;;;;;;;-2.62;76.77;102758.92;1575122;90;26064;-80
2022/03/01 07:38:02;;;;;;;52.10;24.07;;;;;;;-2.52;76.66;102753.77;1560963;90;25891;-79
2022/03/01 07:40:29;;;;;;;57.55;26.12;;;;;;;-2.42;76.67;102757.81;1560660;90;25815;-79
2022/03/01 07:42:55;;;;;;;55.43;24.45;;;;;;;-2.31;76.46;102756.14;1552822;91;25910;-78
2022/03/01 07:45:22;;;;;;;58.15;22.75;;;;;;;-2.22;76.60;102755.83;1556159;90;28189;-79
2022/03/01 07:47:49;;;;;;;50.52;23.40;;;;;;;-2.12;76.57;102757.22;1562671;87;26267;-79
2022/03/01 07:50:16;;;;;;;49.73;23.00;;;;;;;-1.93;76.13;102760.46;1563373;90;25846;-81
2022/03/01 07:52:42;;;;;;;55.63;23.73;;;;;;;-1.93;76.13;102760.46;1555324;91;26350;-79
2022/03/01 07:55:09;;;;;;;54.70;23.80;;;;;;;-1.81;76.81;102763.95;1556374;90;25953;-80
2022/03/01 07:57:35;;;;;;;51.25;23.45;;;;;;;-1.69;76.26;102766.61;1561150;90;28394;-81
2022/03/01 08:00:03;;;;;;;50.85;23.32;;;;;;;-1.66;76.27;102752.02;1547929;90;25582;-79
2022/03/01 08:02:31;;;;;;;53.13;25.02;;;;;;;-1.58;76.26;102745.57;1557347;90;25922;-79
2022/03/01 08:05:00;;;;;;;52.88;25.45;;;;;;;-1.44;76.21;102750.33;1556351;90;26454;-80
2022/03/01 08:07:28;;;;;;;57.85;26.30;;;;;;;-1.34;76.31;102754.76;1555816;91;26023;-79
2022/03/01 08:09:53;;;;;;;54.05;24.72;;;;;;;-1.26;76.29;102746.14;1558133;90;28326;-80
2022/03/01 08:12:20;;;;;;;50.67;24.05;;;;;;;-1.17;76.38;102744.00;1552441;90;26468;-79
2022/03/01 08:14:46;;;;;;;77.32;34.15;;;;;;;-1.11;75.96;102727.14;1553369;90;25782;-79
2022/03/01 08:17:12;;;;;;;63.00;28.40;;;;;;;-0.97;76.22;102740.14;1551781;91;25870;-79
2022/03/01 08:19:40;;;;;;;49.77;22.58;;;;;;;-0.86;76.24;102741.02;1552875;91;26522;-79
2022/03/01 08:22:07;;;;;;;71.37;37.25;;;;;;;-0.72;75.19;102742.63;1553788;90;27468;-80
2022/03/01 08:24:33;;;;;;;57.93;26.62;;;;;;;-0.59;74.66;102735.08;1554960;91;25959;-80
2022/03/01 08:26:59;;;;;;;34.50;18.37;;;;;;;-0.47;74.59;102739.84;1554852;88;25847;-79
2022/03/01 08:29:26;;;;;;;34.98;15.55;;;;;;;-0.36;73.46;102742.41;1550503;91;25936;-79
2022/03/01 08:31:52;;;;;;;34.58;16.30;;;;;;;-0.23;72.37;102742.73;1552739;90;26658;-80
2022/03/01 08:34:19;;;;;;;26.62;13.22;;;;;;;-0.10;72.19;102745.24;1552460;91;27472;-80
2022/03/01 08:36:45;;;;;;;32.48;14.83;;;;;;;0.02;71.94;102746.05;1553399;91;26191;-80
2022/03/01 08:39:11;;;;;;;29.65;13.88;;;;;;;0.15;70.97;102743.23;1553660;88;25874;-79
2022/03/01 08:41:37;;;;;;;27.95;14.18;;;;;;;0.27;70.64;102739.22;1555825;90;26598;-82
2022/03/01 08:44:04;;;;;;;29.98;15.23;;;;;;;0.40;69.78;102740.38;1576890;90;25951;-79
2022/03/01 08:46:30;;;;;;;31.75;15.80;;;;;;;0.49;69.60;102736.84;1579014;90;27480;-80
2022/03/01 08:48:57;;;;;;;30.45;14.83;;;;;;;0.59;69.42;102737.28;1562223;89;26076;-81
2022/03/01 08:51:25;;;;;;;26.82;12.45;;;;;;;0.69;69.16;102735.47;1569821;88;26027;-80
2022/03/01 08:53:54;;;;;;;32.73;14.60;;;;;;;0.78;68.09;102723.62;1556709;91;32541;-80
2022/03/01 08:56:21;;;;;;;33.73;12.98;;;;;;;0.89;68.06;102726.62;1563295;91;25823;-79
2022/03/01 08:58:48;;;;;;;22.70;10.68;;;;;;;1.00;67.52;102723.47;1566376;89;28314;-79
2022/03/01 09:01:15;;;;;;;32.25;14.75;;;;;;;1.12;65.82;102714.48;1576935;90;25938;-80
2022/03/01 09:03:43;;;;;;;21.65;10.93;;;;;;;1.23;65.83;102716.14;1581445;88;25828;-79
2022/03/01 09:06:09;;;;;;;18.87;10.00;;;;;;;1.33;63.26;102717.39;1580488;89;26589;-80
2022/03/01 09:08:39;;;;;;;16.35;8.60;;;;;;;1.48;63.49;102719.72;1580711;90;25887;-81
2022/03/01 09:11:04;;;;;;;18.23;10.25;;;;;;;1.63;60.43;102717.63;1570360;90;27499;-79
2022/03/01 09:13:31;;;;;;;20.27;8.63;;;;;;;1.73;62.04;102711.42;1568770;90;25851;-80
2022/03/01 09:15:57;;;;;;;20.37;8.95;;;;;;;1.85;61.34;102716.06;1581091;89;26612;-80
2022/03/01 09:18:23;;;;;;;18.77;9.53;;;;;;;1.94;60.73;102713.81;1569506;91;26596;-80
2022/03/01 09:20:50;;;;;;;20.82;9.75;;;;;;;2.05;59.61;102706.64;1581599;90;25805;-81
2022/03/01 09:23:16;;;;;;;19.70;9.65;;;;;;;2.11;59.46;102711.14;1573329;90;27457;-81
2022/03/01 09:25:43;;;;;;;21.65;9.83;;;;;;;2.20;57.07;102706.66;1578113;89;25871;-80
2022/03/01 09:28:10;;;;;;;19.40;9.23;;;;;;;2.28;55.18;102706.27;1572237;90;25930;-80
2022/03/01 09:30:36;;;;;;;16.37;8.60;;;;;;;2.33;55.57;102703.75;1568433;91;25794;-80
2022/03/01 09:33:02;;;;;;;16.00;7.90;;;;;;;2.39;54.40;102702.58;1568668;90;25858;-80
2022/03/01 09:35:29;;;;;;;18.70;9.08;;;;;;;2.44;54.55;102704.98;1538005;91;27549;-80
2022/03/01 09:37:55;;;;;;;15.15;8.20;;;;;;;2.49;55.24;102695.84;1579905;89;25768;-80
2022/03/01 09:40:21;;;;;;;14.47;7.90;;;;;;;2.53;54.29;102692.09;1535843;92;25389;-80
2022/03/01 09:42:50;;;;;;;12.58;6.28;;;;;;;2.59;55.27;102686.45;1560382;89;25930;-81
2022/03/01 09:45:16;;;;;;;10.70;5.80;;;;;;;2.68;54.31;102690.38;1566107;90;25813;-80
2022/03/01 09:47:43;;;;;;;14.40;6.55;;;;;;;2.73;52.94;102687.88;1563070;91;27555;-82
2022/03/01 09:50:12;;;;;;;13.72;6.67;;;;;;;2.82;53.47;102678.08;1560756;89;25678;-80
2022/03/01 09:52:39;;;;;;;12.53;6.50;;;;;;;2.88;54.06;102669.83;1562309;91;26523;-80
2022/03/01 09:55:08;;;;;;;15.75;7.17;;;;;;;2.97;53.18;102673.24;1559514;89;25993;-81
2022/03/01 09:57:34;;;;;;;13.78;6.45;;;;;;;2.99;54.42;102660.77;1566219;89;26687;-82
2022/03/01 10:00:01;;;;;;;11.00;5.65;;;;;;;3.05;54.08;102656.47;1558884;91;28332;-78
2022/03/01 10:02:38;;;;;;;9.75;4.90;;;;;;;3.13;52.87;102654.69;1561617;91;26000;-79
2022/03/01 10:05:05;;;;;;;11.15;5.53;;;;;;;3.17;51.63;102656.22;1571894;90;25883;-78
2022/03/01 10:07:32;;;;;;;12.60;6.35;;;;;;;3.23;51.17;102662.97;1571918;89;25844;-78
2022/03/01 10:10:16;;;;;;;12.95;6.33;;;;;;;3.26;50.81;102657.47;1559865;90;26613;-78
2022/03/01 10:12:40;;;;;;;12.07;6.03;;;;;;;3.29;50.24;102650.69;1559985;90;27567;-79
2022/03/01 10:15:10;;;;;;;10.58;5.60;;;;;;;3.31;51.65;102647.47;1572027;90;25768;-78
2022/03/01 10:17:45;;;;;;;10.40;6.20;;;;;;;3.37;51.16;102647.11;1556274;90;25944;-78
2022/03/01 10:20:19;;;;;;;10.88;6.05;;;;;;;3.38;49.84;102649.66;1553145;89;25952;-79
2022/03/01 10:22:49;;;;;;;13.10;6.03;;;;;;;3.45;49.77;102636.91;1561730;90;26093;-78
2022/03/01 10:25:18;;;;;;;12.45;5.72;;;;;;;3.47;50.31;102626.59;1556593;91;27648;-77
2022/03/01 10:27:46;;;;;;;11.25;6.05;;;;;;;3.51;48.27;102624.14;1553607;91;25795;-77
2022/03/01 10:30:26;;;;;;;12.70;6.70;;;;;;;3.56;49.21;102614.59;1552104;90;26295;-77
2022/03/01 10:33:14;;;;;;;12.55;5.92;;;;;;;3.60;49.12;102606.84;1552865;90;25939;-78
2022/03/01 10:35:45;;;;;;;13.60;6.92;;;;;;;3.60;48.25;102606.37;1560676;90;26062;-78
2022/03/01 10:38:12;;;;;;;14.10;6.80;;;;;;;3.65;47.41;102613.58;1552728;90;28290;-78
2022/03/01 10:40:40;;;;;;;14.83;7.85;;;;;;;3.65;48.51;102596.82;1554282;91;25332;-78
2022/03/01 10:43:12;;;;;;;11.85;6.30;;;;;;;3.71;49.02;102601.73;1554272;90;25885;-78
2022/03/01 10:45:43;;;;;;;11.43;6.15;;;;;;;3.74;48.39;102591.79;1554675;91;25818;-78
2022/03/01 10:48:17;;;;;;;10.13;5.92;;;;;;;3.78;48.42;102588.50;1557377;90;25847;-79
2022/03/01 10:50:43;;;;;;;13.18;6.53;;;;;;;3.79;48.42;102580.91;1553816;91;28265;-78
2022/03/01 10:53:11;;;;;;;12.28;6.45;;;;;;;3.86;47.30;102576.94;1550025;90;26551;-78
2022/03/01 10:55:41;;;;;;;12.40;6.95;;;;;;;3.89;47.81;102574.11;1558437;88;25889;-77
2022/03/01 10:58:11;;;;;;;19.10;10.30;;;;;;;3.92;47.60;102573.90;1554975;88;37691;-81
2022/03/01 11:00:38;;;;;;;15.35;9.10;;;;;;;3.98;47.37;102572.69;1548465;90;26830;-81
2022/03/01 11:03:07;;;;;;;12.37;7.37;;;;;;;3.98;47.85;102566.88;1548331;91;27534;-79
2022/03/01 11:05:35;;;;;;;15.35;8.23;;;;;;;4.06;47.83;102571.25;1555642;90;25558;-81
2022/03/01 11:08:08;;;;;;;16.70;8.83;;;;;;;4.09;47.93;102559.11;1552325;90;25426;-80
2022/03/01 11:10:36;;;;;;;16.87;8.10;;;;;;;4.14;48.24;102564.12;1547316;91;26173;-81
2022/03/01 11:13:06;;;;;;;18.17;7.97;;;;;;;4.23;47.79;102565.73;1556042;91;25293;-78